sensor_id;sensor_type;location;lat;lon;timestamp;P1;durP1;ratioP1;P2;durP2;ratioP2
5650;SDS011;40241;52.684;9.758;2023-03-11T00:01:38;7.40;;;5.23;;
5650;SDS011;40241;52.684;9.758;2023-03-11T00:04:04;6.90;;;5.37;;
5650;SDS011;40241;52.684;9.758;2023-03-11T00:06:35;5.63;;;5.00;;
5650;SDS011;40241;52.684;9.758;2023-03-11T00:09:00;6.30;;;5.00;;
5650;SDS011;40241;52.684;9.758;2023-03-11T00:11:25;6.77;;;5.13;;
5650;SDS011;40241;52.684;9.758;2023-03-11T00:13:51;6.60;;;5.40;;
5650;SDS011;40241;52.684;9.758;2023-03-11T00:16:16;7.97;;;5.07;;
5650;SDS011;40241;52.684;9.758;2023-03-11T00:18:42;6.57;;;5.40;;
5650;SDS011;40241;52.684;9.758;2023-03-11T00:21:12;6.10;;;5.20;;
5650;SDS011;40241;52.684;9.758;2023-03-11T00:23:40;5.57;;;4.90;;
5650;SDS011;40241;52.684;9.758;2023-03-11T00:26:06;6.70;;;4.70;;
5650;SDS011;40241;52.684;9.758;2023-03-11T00:28:31;9.33;;;4.10;;
5650;SDS011;40241;52.684;9.758;2023-03-11T00:30:56;6.40;;;5.00;;
5650;SDS011;40241;52.684;9.758;2023-03-11T00:33:22;4.57;;;4.13;;
5650;SDS011;40241;52.684;9.758;2023-03-11T00:35:48;5.10;;;4.60;;
5650;SDS011;40241;52.684;9.758;2023-03-11T00:38:14;6.00;;;5.40;;
5650;SDS011;40241;52.684;9.758;2023-03-11T00:40:41;7.70;;;6.10;;
5650;SDS011;40241;52.684;9.758;2023-03-11T00:43:07;5.70;;;4.90;;
5650;SDS011;40241;52.684;9.758;2023-03-11T00:45:33;7.60;;;5.60;;
5650;SDS011;40241;52.684;9.758;2023-03-11T00:47:58;5.97;;;4.90;;
5650;SDS011;40241;52.684;9.758;2023-03-11T00:50:34;7.80;;;5.83;;
5650;SDS011;40241;52.684;9.758;2023-03-11T00:53:00;6.20;;;4.90;;
5650;SDS011;40241;52.684;9.758;2023-03-11T00:55:28;6.57;;;5.20;;
5650;SDS011;40241;52.684;9.758;2023-03-11T00:57:55;8.63;;;5.77;;
5650;SDS011;40241;52.684;9.758;2023-03-11T01:00:24;8.70;;;5.57;;
5650;SDS011;40241;52.684;9.758;2023-03-11T01:02:50;7.30;;;6.00;;
5650;SDS011;40241;52.684;9.758;2023-03-11T01:05:18;8.80;;;5.87;;
5650;SDS011;40241;52.684;9.758;2023-03-11T01:07:45;8.17;;;6.33;;
5650;SDS011;40241;52.684;9.758;2023-03-11T01:10:10;9.37;;;6.70;;
5650;SDS011;40241;52.684;9.758;2023-03-11T01:12:36;9.23;;;6.80;;
5650;SDS011;40241;52.684;9.758;2023-03-11T01:15:02;10.23;;;7.00;;
5650;SDS011;40241;52.684;9.758;2023-03-11T01:17:29;9.13;;;6.17;;
5650;SDS011;40241;52.684;9.758;2023-03-11T01:19:54;9.47;;;6.40;;
5650;SDS011;40241;52.684;9.758;2023-03-11T01:22:19;8.83;;;6.50;;
5650;SDS011;40241;52.684;9.758;2023-03-11T01:24:45;7.60;;;5.43;;
5650;SDS011;40241;52.684;9.758;2023-03-11T01:27:10;9.10;;;5.97;;
5650;SDS011;40241;52.684;9.758;2023-03-11T01:29:35;9.13;;;6.40;;
5650;SDS011;40241;52.684;9.758;2023-03-11T01:32:01;10.00;;;6.77;;
5650;SDS011;40241;52.684;9.758;2023-03-11T01:34:26;8.80;;;5.80;;
5650;SDS011;40241;52.684;9.758;2023-03-11T01:36:51;7.23;;;5.93;;
5650;SDS011;40241;52.684;9.758;2023-03-11T01:39:17;7.47;;;5.40;;
5650;SDS011;40241;52.684;9.758;2023-03-11T01:41:42;7.73;;;5.80;;
5650;SDS011;40241;52.684;9.758;2023-03-11T01:44:10;6.80;;;5.13;;
5650;SDS011;40241;52.684;9.758;2023-03-11T01:46:39;5.93;;;5.00;;
5650;SDS011;40241;52.684;9.758;2023-03-11T01:49:24;5.73;;;4.20;;
5650;SDS011;40241;52.684;9.758;2023-03-11T01:51:50;6.20;;;4.73;;
5650;SDS011;40241;52.684;9.758;2023-03-11T01:56:52;7.90;;;5.10;;
5650;SDS011;40241;52.684;9.758;2023-03-11T01:59:20;5.90;;;5.30;;
5650;SDS011;40241;52.684;9.758;2023-03-11T02:01:51;6.20;;;4.70;;
5650;SDS011;40241;52.684;9.758;2023-03-11T02:04:25;6.03;;;4.57;;
5650;SDS011;40241;52.684;9.758;2023-03-11T02:06:52;4.30;;;3.90;;
5650;SDS011;40241;52.684;9.758;2023-03-11T02:09:19;5.10;;;3.87;;
5650;SDS011;40241;52.684;9.758;2023-03-11T02:11:46;4.97;;;4.20;;
5650;SDS011;40241;52.684;9.758;2023-03-11T02:14:11;4.73;;;3.50;;
5650;SDS011;40241;52.684;9.758;2023-03-11T02:16:37;3.50;;;3.20;;
5650;SDS011;40241;52.684;9.758;2023-03-11T02:19:05;3.37;;;2.93;;
5650;SDS011;40241;52.684;9.758;2023-03-11T02:21:41;3.20;;;2.50;;
5650;SDS011;40241;52.684;9.758;2023-03-11T02:26:55;4.23;;;2.87;;
5650;SDS011;40241;52.684;9.758;2023-03-11T02:29:24;3.47;;;2.30;;
5650;SDS011;40241;52.684;9.758;2023-03-11T02:31:51;3.07;;;2.77;;
5650;SDS011;40241;52.684;9.758;2023-03-11T02:34:23;2.70;;;2.50;;
5650;SDS011;40241;52.684;9.758;2023-03-11T02:36:51;2.60;;;2.40;;
5650;SDS011;40241;52.684;9.758;2023-03-11T02:39:26;2.83;;;2.63;;
5650;SDS011;40241;52.684;9.758;2023-03-11T02:41:54;3.73;;;3.23;;
5650;SDS011;40241;52.684;9.758;2023-03-11T02:44:19;3.87;;;2.80;;
5650;SDS011;40241;52.684;9.758;2023-03-11T02:46:45;3.60;;;3.30;;
5650;SDS011;40241;52.684;9.758;2023-03-11T02:49:11;3.90;;;3.50;;
5650;SDS011;40241;52.684;9.758;2023-03-11T02:51:36;3.60;;;3.30;;
5650;SDS011;40241;52.684;9.758;2023-03-11T02:54:03;4.20;;;3.10;;
5650;SDS011;40241;52.684;9.758;2023-03-11T02:56:29;3.77;;;3.20;;
5650;SDS011;40241;52.684;9.758;2023-03-11T02:58:55;3.77;;;3.23;;
5650;SDS011;40241;52.684;9.758;2023-03-11T03:01:20;5.20;;;3.13;;
5650;SDS011;40241;52.684;9.758;2023-03-11T03:03:45;3.67;;;3.20;;
5650;SDS011;40241;52.684;9.758;2023-03-11T03:06:11;6.10;;;3.00;;
5650;SDS011;40241;52.684;9.758;2023-03-11T03:08:36;3.53;;;3.23;;
5650;SDS011;40241;52.684;9.758;2023-03-11T03:11:02;3.30;;;3.00;;
5650;SDS011;40241;52.684;9.758;2023-03-11T03:13:28;3.13;;;2.83;;
5650;SDS011;40241;52.684;9.758;2023-03-11T03:15:54;2.53;;;2.33;;
5650;SDS011;40241;52.684;9.758;2023-03-11T03:18:20;2.83;;;2.50;;
5650;SDS011;40241;52.684;9.758;2023-03-11T03:20:45;3.03;;;2.73;;
5650;SDS011;40241;52.684;9.758;2023-03-11T03:23:11;3.20;;;2.37;;
5650;SDS011;40241;52.684;9.758;2023-03-11T03:25:36;2.83;;;2.50;;
5650;SDS011;40241;52.684;9.758;2023-03-11T03:28:01;2.90;;;2.57;;
5650;SDS011;40241;52.684;9.758;2023-03-11T03:30:27;2.20;;;2.10;;
5650;SDS011;40241;52.684;9.758;2023-03-11T03:32:53;2.20;;;2.10;;
5650;SDS011;40241;52.684;9.758;2023-03-11T03:35:19;2.37;;;2.10;;
5650;SDS011;40241;52.684;9.758;2023-03-11T03:37:44;2.90;;;2.60;;
5650;SDS011;40241;52.684;9.758;2023-03-11T03:40:10;2.80;;;2.60;;
5650;SDS011;40241;52.684;9.758;2023-03-11T03:42:36;2.90;;;2.63;;
5650;SDS011;40241;52.684;9.758;2023-03-11T03:45:03;2.93;;;2.63;;
5650;SDS011;40241;52.684;9.758;2023-03-11T03:47:30;2.80;;;2.30;;
5650;SDS011;40241;52.684;9.758;2023-03-11T03:49:56;2.80;;;2.00;;
5650;SDS011;40241;52.684;9.758;2023-03-11T03:52:22;2.23;;;2.03;;
5650;SDS011;40241;52.684;9.758;2023-03-11T03:54:47;4.13;;;2.70;;
5650;SDS011;40241;52.684;9.758;2023-03-11T03:57:12;4.67;;;2.27;;
5650;SDS011;40241;52.684;9.758;2023-03-11T03:59:38;2.73;;;2.40;;
5650;SDS011;40241;52.684;9.758;2023-03-11T04:02:03;2.43;;;2.30;;
5650;SDS011;40241;52.684;9.758;2023-03-11T04:04:29;2.50;;;2.33;;
5650;SDS011;40241;52.684;9.758;2023-03-11T04:06:54;2.50;;;2.30;;
5650;SDS011;40241;52.684;9.758;2023-03-11T04:09:19;4.23;;;2.30;;
5650;SDS011;40241;52.684;9.758;2023-03-11T04:11:45;3.23;;;2.27;;
5650;SDS011;40241;52.684;9.758;2023-03-11T04:14:11;3.00;;;2.40;;
5650;SDS011;40241;52.684;9.758;2023-03-11T04:16:37;2.60;;;2.40;;
5650;SDS011;40241;52.684;9.758;2023-03-11T04:19:02;3.00;;;2.70;;
5650;SDS011;40241;52.684;9.758;2023-03-11T04:21:29;3.17;;;2.90;;
5650;SDS011;40241;52.684;9.758;2023-03-11T04:23:55;4.07;;;2.70;;
5650;SDS011;40241;52.684;9.758;2023-03-11T04:26:20;2.80;;;2.60;;
5650;SDS011;40241;52.684;9.758;2023-03-11T04:28:46;2.80;;;2.30;;
5650;SDS011;40241;52.684;9.758;2023-03-11T04:31:11;4.63;;;2.40;;
5650;SDS011;40241;52.684;9.758;2023-03-11T04:33:36;4.83;;;2.67;;
5650;SDS011;40241;52.684;9.758;2023-03-11T04:36:05;2.40;;;1.83;;
5650;SDS011;40241;52.684;9.758;2023-03-11T04:38:31;2.47;;;2.20;;
5650;SDS011;40241;52.684;9.758;2023-03-11T04:41:04;3.00;;;2.30;;
5650;SDS011;40241;52.684;9.758;2023-03-11T04:43:30;3.50;;;2.20;;
5650;SDS011;40241;52.684;9.758;2023-03-11T04:45:56;3.73;;;2.00;;
5650;SDS011;40241;52.684;9.758;2023-03-11T04:48:21;3.30;;;2.47;;
5650;SDS011;40241;52.684;9.758;2023-03-11T04:50:48;2.70;;;2.50;;
5650;SDS011;40241;52.684;9.758;2023-03-11T04:53:14;2.10;;;1.97;;
5650;SDS011;40241;52.684;9.758;2023-03-11T04:55:39;2.13;;;1.90;;
5650;SDS011;40241;52.684;9.758;2023-03-11T04:58:05;3.33;;;1.50;;
5650;SDS011;40241;52.684;9.758;2023-03-11T05:00:30;7.23;;;2.17;;
5650;SDS011;40241;52.684;9.758;2023-03-11T05:02:56;2.80;;;2.30;;
5650;SDS011;40241;52.684;9.758;2023-03-11T05:05:21;1.70;;;1.60;;
5650;SDS011;40241;52.684;9.758;2023-03-11T05:07:47;8.23;;;2.67;;
5650;SDS011;40241;52.684;9.758;2023-03-11T05:10:13;3.97;;;1.57;;
5650;SDS011;40241;52.684;9.758;2023-03-11T05:12:39;3.27;;;1.50;;
5650;SDS011;40241;52.684;9.758;2023-03-11T05:15:05;3.23;;;1.30;;
5650;SDS011;40241;52.684;9.758;2023-03-11T05:17:31;4.07;;;1.80;;
5650;SDS011;40241;52.684;9.758;2023-03-11T05:19:56;2.47;;;1.33;;
5650;SDS011;40241;52.684;9.758;2023-03-11T05:22:22;6.03;;;1.90;;
5650;SDS011;40241;52.684;9.758;2023-03-11T05:24:47;2.60;;;1.60;;
5650;SDS011;40241;52.684;9.758;2023-03-11T05:27:13;1.53;;;1.43;;
5650;SDS011;40241;52.684;9.758;2023-03-11T05:29:42;2.30;;;1.73;;
5650;SDS011;40241;52.684;9.758;2023-03-11T05:32:08;2.07;;;1.97;;
5650;SDS011;40241;52.684;9.758;2023-03-11T05:34:34;4.33;;;2.10;;
5650;SDS011;40241;52.684;9.758;2023-03-11T05:36:59;2.70;;;1.80;;
5650;SDS011;40241;52.684;9.758;2023-03-11T05:39:25;5.47;;;3.03;;
5650;SDS011;40241;52.684;9.758;2023-03-11T05:41:51;4.73;;;3.07;;
5650;SDS011;40241;52.684;9.758;2023-03-11T05:44:16;2.57;;;2.27;;
5650;SDS011;40241;52.684;9.758;2023-03-11T05:46:41;5.13;;;2.20;;
5650;SDS011;40241;52.684;9.758;2023-03-11T05:49:07;7.40;;;2.73;;
5650;SDS011;40241;52.684;9.758;2023-03-11T05:51:32;7.60;;;2.10;;
5650;SDS011;40241;52.684;9.758;2023-03-11T05:53:57;3.00;;;1.80;;
5650;SDS011;40241;52.684;9.758;2023-03-11T05:56:23;3.17;;;1.93;;
5650;SDS011;40241;52.684;9.758;2023-03-11T05:58:48;8.07;;;2.63;;
5650;SDS011;40241;52.684;9.758;2023-03-11T06:01:14;6.93;;;3.57;;
5650;SDS011;40241;52.684;9.758;2023-03-11T06:03:42;6.60;;;3.10;;
5650;SDS011;40241;52.684;9.758;2023-03-11T06:06:08;10.97;;;4.57;;
5650;SDS011;40241;52.684;9.758;2023-03-11T06:08:35;12.00;;;3.60;;
5650;SDS011;40241;52.684;9.758;2023-03-11T06:11:02;4.43;;;2.80;;
5650;SDS011;40241;52.684;9.758;2023-03-11T06:13:29;7.10;;;2.30;;
5650;SDS011;40241;52.684;9.758;2023-03-11T06:15:54;3.47;;;2.33;;
5650;SDS011;40241;52.684;9.758;2023-03-11T06:18:19;2.93;;;1.53;;
5650;SDS011;40241;52.684;9.758;2023-03-11T06:20:45;1.83;;;1.60;;
5650;SDS011;40241;52.684;9.758;2023-03-11T06:23:10;4.53;;;1.90;;
5650;SDS011;40241;52.684;9.758;2023-03-11T06:25:35;3.97;;;1.90;;
5650;SDS011;40241;52.684;9.758;2023-03-11T06:28:01;3.03;;;1.80;;
5650;SDS011;40241;52.684;9.758;2023-03-11T06:30:26;3.93;;;2.30;;
5650;SDS011;40241;52.684;9.758;2023-03-11T06:32:51;3.13;;;2.70;;
5650;SDS011;40241;52.684;9.758;2023-03-11T06:35:17;2.70;;;2.07;;
5650;SDS011;40241;52.684;9.758;2023-03-11T06:37:42;7.63;;;2.37;;
5650;SDS011;40241;52.684;9.758;2023-03-11T06:40:08;3.23;;;2.40;;
5650;SDS011;40241;52.684;9.758;2023-03-11T06:42:34;3.27;;;2.57;;
5650;SDS011;40241;52.684;9.758;2023-03-11T06:45:00;5.83;;;2.83;;
5650;SDS011;40241;52.684;9.758;2023-03-11T06:47:25;2.83;;;2.57;;
5650;SDS011;40241;52.684;9.758;2023-03-11T06:49:51;4.67;;;2.60;;
5650;SDS011;40241;52.684;9.758;2023-03-11T06:52:17;2.43;;;2.23;;
5650;SDS011;40241;52.684;9.758;2023-03-11T06:54:42;3.50;;;3.20;;
5650;SDS011;40241;52.684;9.758;2023-03-11T06:57:07;4.97;;;2.80;;
5650;SDS011;40241;52.684;9.758;2023-03-11T06:59:34;4.40;;;2.13;;
5650;SDS011;40241;52.684;9.758;2023-03-11T07:01:59;2.50;;;2.30;;
5650;SDS011;40241;52.684;9.758;2023-03-11T07:04:25;5.00;;;3.00;;
5650;SDS011;40241;52.684;9.758;2023-03-11T07:06:51;7.07;;;3.30;;
5650;SDS011;40241;52.684;9.758;2023-03-11T07:09:16;4.67;;;2.30;;
5650;SDS011;40241;52.684;9.758;2023-03-11T07:11:41;4.10;;;3.00;;
5650;SDS011;40241;52.684;9.758;2023-03-11T07:14:07;5.90;;;2.33;;
5650;SDS011;40241;52.684;9.758;2023-03-11T07:16:32;4.07;;;2.60;;
5650;SDS011;40241;52.684;9.758;2023-03-11T07:18:58;4.70;;;2.97;;
5650;SDS011;40241;52.684;9.758;2023-03-11T07:21:27;5.50;;;2.50;;
5650;SDS011;40241;52.684;9.758;2023-03-11T07:23:54;5.80;;;2.67;;
5650;SDS011;40241;52.684;9.758;2023-03-11T07:26:21;5.73;;;3.00;;
5650;SDS011;40241;52.684;9.758;2023-03-11T07:28:47;2.93;;;2.73;;
5650;SDS011;40241;52.684;9.758;2023-03-11T07:31:17;4.90;;;2.27;;
5650;SDS011;40241;52.684;9.758;2023-03-11T07:33:44;2.57;;;2.10;;
5650;SDS011;40241;52.684;9.758;2023-03-11T07:36:12;3.00;;;1.60;;
5650;SDS011;40241;52.684;9.758;2023-03-11T07:38:39;3.73;;;1.83;;
5650;SDS011;40241;52.684;9.758;2023-03-11T07:41:05;1.93;;;1.70;;
5650;SDS011;40241;52.684;9.758;2023-03-11T07:43:31;5.07;;;2.00;;
5650;SDS011;40241;52.684;9.758;2023-03-11T07:46:08;11.83;;;3.67;;
5650;SDS011;40241;52.684;9.758;2023-03-11T07:48:36;9.40;;;4.93;;
5650;SDS011;40241;52.684;9.758;2023-03-11T07:51:06;8.13;;;4.77;;
5650;SDS011;40241;52.684;9.758;2023-03-11T07:53:36;12.07;;;4.30;;
5650;SDS011;40241;52.684;9.758;2023-03-11T07:56:02;8.20;;;4.40;;
5650;SDS011;40241;52.684;9.758;2023-03-11T07:58:28;5.27;;;3.17;;
5650;SDS011;40241;52.684;9.758;2023-03-11T08:00:54;6.00;;;3.90;;
5650;SDS011;40241;52.684;9.758;2023-03-11T08:03:21;5.57;;;3.77;;
5650;SDS011;40241;52.684;9.758;2023-03-11T08:05:49;6.20;;;3.47;;
5650;SDS011;40241;52.684;9.758;2023-03-11T08:08:15;7.20;;;4.60;;
5650;SDS011;40241;52.684;9.758;2023-03-11T08:10:41;5.10;;;4.33;;
5650;SDS011;40241;52.684;9.758;2023-03-11T08:13:06;10.03;;;5.70;;
5650;SDS011;40241;52.684;9.758;2023-03-11T08:15:31;12.73;;;5.40;;
5650;SDS011;40241;52.684;9.758;2023-03-11T08:17:57;6.93;;;4.20;;
5650;SDS011;40241;52.684;9.758;2023-03-11T08:20:22;11.43;;;4.57;;
5650;SDS011;40241;52.684;9.758;2023-03-11T08:22:47;7.60;;;4.10;;
5650;SDS011;40241;52.684;9.758;2023-03-11T08:25:13;4.20;;;2.97;;
5650;SDS011;40241;52.684;9.758;2023-03-11T08:27:38;3.70;;;2.23;;
5650;SDS011;40241;52.684;9.758;2023-03-11T08:30:04;4.53;;;2.10;;
5650;SDS011;40241;52.684;9.758;2023-03-11T08:32:31;1.93;;;1.67;;
5650;SDS011;40241;52.684;9.758;2023-03-11T08:34:57;1.60;;;1.50;;
5650;SDS011;40241;52.684;9.758;2023-03-11T08:37:22;2.03;;;1.83;;
5650;SDS011;40241;52.684;9.758;2023-03-11T08:39:48;4.50;;;2.50;;
5650;SDS011;40241;52.684;9.758;2023-03-11T08:42:13;8.67;;;4.90;;
5650;SDS011;40241;52.684;9.758;2023-03-11T08:44:39;13.43;;;5.43;;
5650;SDS011;40241;52.684;9.758;2023-03-11T08:47:05;13.03;;;5.23;;
5650;SDS011;40241;52.684;9.758;2023-03-11T08:49:30;13.23;;;5.10;;
5650;SDS011;40241;52.684;9.758;2023-03-11T08:51:55;5.53;;;2.83;;
5650;SDS011;40241;52.684;9.758;2023-03-11T08:54:21;6.60;;;2.63;;
5650;SDS011;40241;52.684;9.758;2023-03-11T08:56:46;6.93;;;3.10;;
5650;SDS011;40241;52.684;9.758;2023-03-11T08:59:12;6.80;;;4.70;;
5650;SDS011;40241;52.684;9.758;2023-03-11T09:01:38;5.07;;;2.90;;
5650;SDS011;40241;52.684;9.758;2023-03-11T09:04:03;10.43;;;3.00;;
5650;SDS011;40241;52.684;9.758;2023-03-11T09:06:29;6.90;;;3.53;;
5650;SDS011;40241;52.684;9.758;2023-03-11T09:08:54;5.97;;;3.60;;
5650;SDS011;40241;52.684;9.758;2023-03-11T09:11:19;5.53;;;2.30;;
5650;SDS011;40241;52.684;9.758;2023-03-11T09:13:46;3.93;;;1.53;;
5650;SDS011;40241;52.684;9.758;2023-03-11T09:16:13;10.83;;;2.20;;
5650;SDS011;40241;52.684;9.758;2023-03-11T09:18:40;4.17;;;1.20;;
5650;SDS011;40241;52.684;9.758;2023-03-11T09:21:06;1.87;;;1.00;;
5650;SDS011;40241;52.684;9.758;2023-03-11T09:23:31;2.40;;;1.50;;
5650;SDS011;40241;52.684;9.758;2023-03-11T09:25:57;3.13;;;1.33;;
5650;SDS011;40241;52.684;9.758;2023-03-11T09:28:22;3.33;;;1.70;;
5650;SDS011;40241;52.684;9.758;2023-03-11T09:30:47;2.70;;;1.57;;
5650;SDS011;40241;52.684;9.758;2023-03-11T09:33:13;2.30;;;1.40;;
5650;SDS011;40241;52.684;9.758;2023-03-11T09:35:38;2.23;;;1.37;;
5650;SDS011;40241;52.684;9.758;2023-03-11T09:38:04;4.90;;;1.20;;
5650;SDS011;40241;52.684;9.758;2023-03-11T09:40:50;1.57;;;1.03;;
5650;SDS011;40241;52.684;9.758;2023-03-11T09:44:22;3.37;;;1.27;;
5650;SDS011;40241;52.684;9.758;2023-03-11T09:52:13;2.80;;;1.60;;
5650;SDS011;40241;52.684;9.758;2023-03-11T09:54:44;3.20;;;1.90;;
5650;SDS011;40241;52.684;9.758;2023-03-11T09:57:13;2.90;;;2.23;;
5650;SDS011;40241;52.684;9.758;2023-03-11T09:59:43;2.70;;;2.33;;
5650;SDS011;40241;52.684;9.758;2023-03-11T10:02:11;3.13;;;1.90;;
5650;SDS011;40241;52.684;9.758;2023-03-11T10:07:38;4.67;;;3.93;;
5650;SDS011;40241;52.684;9.758;2023-03-11T10:10:06;3.33;;;2.33;;
5650;SDS011;40241;52.684;9.758;2023-03-11T10:12:55;2.07;;;1.87;;
5650;SDS011;40241;52.684;9.758;2023-03-11T10:18:27;2.10;;;1.40;;
5650;SDS011;40241;52.684;9.758;2023-03-11T10:22:10;3.80;;;1.50;;
5650;SDS011;40241;52.684;9.758;2023-03-11T10:24:25;3.30;;;1.60;;
5650;SDS011;40241;52.684;9.758;2023-03-11T10:27:16;3.00;;;1.50;;
5650;SDS011;40241;52.684;9.758;2023-03-11T10:29:52;2.20;;;1.23;;
5650;SDS011;40241;52.684;9.758;2023-03-11T10:35:18;1.33;;;0.97;;
5650;SDS011;40241;52.684;9.758;2023-03-11T10:37:53;3.57;;;1.20;;
5650;SDS011;40241;52.684;9.758;2023-03-11T10:40:25;1.70;;;1.07;;
5650;SDS011;40241;52.684;9.758;2023-03-11T10:42:54;7.23;;;3.37;;
5650;SDS011;40241;52.684;9.758;2023-03-11T10:45:23;11.23;;;6.73;;
5650;SDS011;40241;52.684;9.758;2023-03-11T10:47:49;12.17;;;4.03;;
5650;SDS011;40241;52.684;9.758;2023-03-11T10:50:15;4.70;;;4.30;;
5650;SDS011;40241;52.684;9.758;2023-03-11T10:55:33;3.23;;;2.47;;
5650;SDS011;40241;52.684;9.758;2023-03-11T10:58:12;3.03;;;2.73;;
5650;SDS011;40241;52.684;9.758;2023-03-11T11:00:40;2.63;;;1.60;;
5650;SDS011;40241;52.684;9.758;2023-03-11T11:03:10;1.97;;;1.80;;
5650;SDS011;40241;52.684;9.758;2023-03-11T11:05:40;4.00;;;2.30;;
5650;SDS011;40241;52.684;9.758;2023-03-11T11:10:55;1.93;;;1.70;;
5650;SDS011;40241;52.684;9.758;2023-03-11T11:13:23;4.50;;;1.70;;
5650;SDS011;40241;52.684;9.758;2023-03-11T11:16:01;6.30;;;1.40;;
5650;SDS011;40241;52.684;9.758;2023-03-11T11:18:45;4.03;;;1.47;;
5650;SDS011;40241;52.684;9.758;2023-03-11T11:21:14;2.33;;;1.20;;
5650;SDS011;40241;52.684;9.758;2023-03-11T11:23:48;1.97;;;1.20;;
5650;SDS011;40241;52.684;9.758;2023-03-11T11:26:24;3.43;;;1.10;;
5650;SDS011;40241;52.684;9.758;2023-03-11T11:29:06;4.73;;;1.60;;
5650;SDS011;40241;52.684;9.758;2023-03-11T11:31:43;4.00;;;1.37;;
5650;SDS011;40241;52.684;9.758;2023-03-11T11:36:55;2.03;;;1.53;;
5650;SDS011;40241;52.684;9.758;2023-03-11T11:39:22;1.27;;;1.10;;
5650;SDS011;40241;52.684;9.758;2023-03-11T11:41:51;1.33;;;1.00;;
5650;SDS011;40241;52.684;9.758;2023-03-11T11:44:18;1.40;;;1.30;;
5650;SDS011;40241;52.684;9.758;2023-03-11T11:46:47;1.20;;;1.10;;
5650;SDS011;40241;52.684;9.758;2023-03-11T11:49:27;1.00;;;0.90;;
5650;SDS011;40241;52.684;9.758;2023-03-11T11:57:54;6.07;;;1.10;;
5650;SDS011;40241;52.684;9.758;2023-03-11T12:00:21;2.90;;;1.20;;
5650;SDS011;40241;52.684;9.758;2023-03-11T12:03:02;1.87;;;0.87;;
5650;SDS011;40241;52.684;9.758;2023-03-11T12:05:30;1.37;;;0.93;;
5650;SDS011;40241;52.684;9.758;2023-03-11T12:08:08;1.27;;;1.20;;
5650;SDS011;40241;52.684;9.758;2023-03-11T12:10:51;4.40;;;1.00;;
5650;SDS011;40241;52.684;9.758;2023-03-11T12:18:51;1.93;;;1.23;;
5650;SDS011;40241;52.684;9.758;2023-03-11T12:26:44;1.60;;;1.07;;
5650;SDS011;40241;52.684;9.758;2023-03-11T12:29:28;1.00;;;0.90;;
5650;SDS011;40241;52.684;9.758;2023-03-11T12:31:58;1.33;;;1.23;;
5650;SDS011;40241;52.684;9.758;2023-03-11T12:34:25;0.80;;;0.70;;
5650;SDS011;40241;52.684;9.758;2023-03-11T12:36:53;2.83;;;1.30;;
5650;SDS011;40241;52.684;9.758;2023-03-11T12:39:27;2.77;;;0.90;;
5650;SDS011;40241;52.684;9.758;2023-03-11T12:44:36;1.50;;;1.33;;
5650;SDS011;40241;52.684;9.758;2023-03-11T12:47:24;2.40;;;0.90;;
5650;SDS011;40241;52.684;9.758;2023-03-11T12:49:52;2.57;;;0.80;;
5650;SDS011;40241;52.684;9.758;2023-03-11T12:52:50;1.13;;;0.97;;
5650;SDS011;40241;52.684;9.758;2023-03-11T13:03:15;0.87;;;0.70;;
5650;SDS011;40241;52.684;9.758;2023-03-11T13:08:45;2.30;;;0.83;;
5650;SDS011;40241;52.684;9.758;2023-03-11T13:16:42;3.43;;;0.83;;
5650;SDS011;40241;52.684;9.758;2023-03-11T13:21:59;1.50;;;0.93;;
5650;SDS011;40241;52.684;9.758;2023-03-11T13:35:05;0.80;;;0.80;;
5650;SDS011;40241;52.684;9.758;2023-03-11T13:42:54;0.97;;;0.70;;
5650;SDS011;40241;52.684;9.758;2023-03-11T13:45:32;1.70;;;0.90;;
5650;SDS011;40241;52.684;9.758;2023-03-11T13:48:00;4.03;;;0.90;;
5650;SDS011;40241;52.684;9.758;2023-03-11T13:50:30;1.47;;;0.90;;
5650;SDS011;40241;52.684;9.758;2023-03-11T13:53:01;2.60;;;0.73;;
5650;SDS011;40241;52.684;9.758;2023-03-11T13:55:33;0.80;;;0.80;;
5650;SDS011;40241;52.684;9.758;2023-03-11T13:58:12;3.27;;;0.63;;
5650;SDS011;40241;52.684;9.758;2023-03-11T14:00:48;0.80;;;0.70;;
5650;SDS011;40241;52.684;9.758;2023-03-11T14:03:15;0.67;;;0.67;;
5650;SDS011;40241;52.684;9.758;2023-03-11T14:05:46;3.90;;;1.20;;
5650;SDS011;40241;52.684;9.758;2023-03-11T14:08:20;2.80;;;1.03;;
5650;SDS011;40241;52.684;9.758;2023-03-11T14:10:51;1.00;;;0.63;;
5650;SDS011;40241;52.684;9.758;2023-03-11T14:13:19;1.13;;;0.63;;
5650;SDS011;40241;52.684;9.758;2023-03-11T14:18:33;1.53;;;0.93;;
5650;SDS011;40241;52.684;9.758;2023-03-11T14:21:04;1.67;;;0.93;;
5650;SDS011;40241;52.684;9.758;2023-03-11T14:23:38;2.50;;;1.00;;
5650;SDS011;40241;52.684;9.758;2023-03-11T14:26:06;1.27;;;0.70;;
5650;SDS011;40241;52.684;9.758;2023-03-11T14:28:36;1.03;;;0.67;;
5650;SDS011;40241;52.684;9.758;2023-03-11T14:31:05;3.23;;;1.30;;
5650;SDS011;40241;52.684;9.758;2023-03-11T14:33:31;2.20;;;1.00;;
5650;SDS011;40241;52.684;9.758;2023-03-11T14:36:01;1.13;;;0.97;;
5650;SDS011;40241;52.684;9.758;2023-03-11T14:38:30;2.70;;;1.37;;
5650;SDS011;40241;52.684;9.758;2023-03-11T14:40:57;1.70;;;1.60;;
5650;SDS011;40241;52.684;9.758;2023-03-11T14:43:24;1.90;;;1.30;;
5650;SDS011;40241;52.684;9.758;2023-03-11T14:45:53;1.30;;;1.20;;
5650;SDS011;40241;52.684;9.758;2023-03-11T14:50:54;3.50;;;0.83;;
5650;SDS011;40241;52.684;9.758;2023-03-11T14:53:27;1.47;;;1.00;;
5650;SDS011;40241;52.684;9.758;2023-03-11T14:55:58;1.67;;;1.00;;
5650;SDS011;40241;52.684;9.758;2023-03-11T15:03:34;2.70;;;1.17;;
5650;SDS011;40241;52.684;9.758;2023-03-11T15:08:49;6.63;;;1.67;;
5650;SDS011;40241;52.684;9.758;2023-03-11T15:11:26;0.70;;;0.70;;
5650;SDS011;40241;52.684;9.758;2023-03-11T15:13:53;2.23;;;0.63;;
5650;SDS011;40241;52.684;9.758;2023-03-11T15:16:33;3.77;;;1.20;;
5650;SDS011;40241;52.684;9.758;2023-03-11T15:19:45;2.63;;;0.90;;
5650;SDS011;40241;52.684;9.758;2023-03-11T15:21:51;2.60;;;1.50;;
5650;SDS011;40241;52.684;9.758;2023-03-11T15:24:26;1.57;;;0.93;;
5650;SDS011;40241;52.684;9.758;2023-03-11T15:29:23;0.90;;;0.80;;
5650;SDS011;40241;52.684;9.758;2023-03-11T15:31:50;4.40;;;1.33;;
5650;SDS011;40241;52.684;9.758;2023-03-11T15:36:52;1.10;;;1.00;;
5650;SDS011;40241;52.684;9.758;2023-03-11T15:44:36;1.07;;;0.97;;
5650;SDS011;40241;52.684;9.758;2023-03-11T15:47:05;1.93;;;0.83;;
5650;SDS011;40241;52.684;9.758;2023-03-11T15:49:37;3.27;;;0.90;;
5650;SDS011;40241;52.684;9.758;2023-03-11T15:52:02;2.00;;;1.00;;
5650;SDS011;40241;52.684;9.758;2023-03-11T15:54:27;1.67;;;1.20;;
5650;SDS011;40241;52.684;9.758;2023-03-11T15:56:54;1.10;;;1.00;;
5650;SDS011;40241;52.684;9.758;2023-03-11T15:59:21;2.20;;;0.93;;
5650;SDS011;40241;52.684;9.758;2023-03-11T16:01:47;2.33;;;1.00;;
5650;SDS011;40241;52.684;9.758;2023-03-11T16:04:14;2.80;;;1.00;;
5650;SDS011;40241;52.684;9.758;2023-03-11T16:06:41;2.43;;;1.00;;
5650;SDS011;40241;52.684;9.758;2023-03-11T16:09:07;1.03;;;0.93;;
5650;SDS011;40241;52.684;9.758;2023-03-11T16:11:33;3.27;;;1.20;;
5650;SDS011;40241;52.684;9.758;2023-03-11T16:13:59;1.13;;;0.90;;
5650;SDS011;40241;52.684;9.758;2023-03-11T16:16:24;1.77;;;1.10;;
5650;SDS011;40241;52.684;9.758;2023-03-11T16:18:49;0.97;;;0.80;;
5650;SDS011;40241;52.684;9.758;2023-03-11T16:21:16;1.47;;;1.00;;
5650;SDS011;40241;52.684;9.758;2023-03-11T16:23:44;3.07;;;1.07;;
5650;SDS011;40241;52.684;9.758;2023-03-11T16:26:10;4.30;;;1.50;;
5650;SDS011;40241;52.684;9.758;2023-03-11T16:28:36;3.33;;;1.30;;
5650;SDS011;40241;52.684;9.758;2023-03-11T16:31:02;1.30;;;0.90;;
5650;SDS011;40241;52.684;9.758;2023-03-11T16:33:28;1.97;;;1.00;;
5650;SDS011;40241;52.684;9.758;2023-03-11T16:35:54;1.33;;;0.93;;
5650;SDS011;40241;52.684;9.758;2023-03-11T16:38:19;1.93;;;1.20;;
5650;SDS011;40241;52.684;9.758;2023-03-11T16:40:54;1.93;;;1.00;;
5650;SDS011;40241;52.684;9.758;2023-03-11T16:43:21;2.07;;;1.20;;
5650;SDS011;40241;52.684;9.758;2023-03-11T16:45:47;3.00;;;1.30;;
5650;SDS011;40241;52.684;9.758;2023-03-11T16:48:12;0.70;;;0.70;;
5650;SDS011;40241;52.684;9.758;2023-03-11T16:50:38;3.03;;;1.30;;
5650;SDS011;40241;52.684;9.758;2023-03-11T16:53:03;1.93;;;0.97;;